バンコク/スワンナプーム の空港の天気 - METARとTAF

スワンナプーム国際空港 ( VTBS / BKK ) - タイ サムットプラーカーン県 (バンコク近郊)
飛行場実況気象(Metar)
観測時間05/30 00:00 ICT (05/29 17:00 UTC)
風向・風速西南西 5m/s
視程7000m
天気現象弱い雨
少しの雲 雲底高度 610m
全天の4割程度の雲 雲底高度 910m
全天の8割程度の雲 雲底高度 3050m
気温25℃
湿度89%
気圧1012hPa
METARVTBS 291700Z 24009KT 7000 -RA FEW020 SCT030 BKN100 25/23 Q1012 NOSIG
過去の天気等 Google飛行場航空写真 Wunderground天気予報

過去48時間のMETAR

飛行場予報(TAF)
発表時間: 5/29 18:00 ICT (5/29 11:00 UTC)
予報対象時間: 29日19時 ICT ~ 31日1時 ICT
風向・風速南南西 5m/s
視程10km以上
少しの雲 雲底高度 610m
30日3時 ICT ~ 30日5時 ICT に徐々に
風向・風速南東 3m/s
30日9時 ICT ~ 30日11時 ICT に徐々に
風向・風速南南西 5m/s
30日17時 ICT ~ 30日21時 ICT に一時的に
風向・風速西南西 8m/s
視程6000m
天気現象弱い雷雨
少しの積乱雲 雲底高度 550m
全天の4割程度の雲 雲底高度 910m
全天の8割程度の雲 雲底高度 3050m
TAF VTBS 291100Z 2912/3018 20010KT 9999 FEW020
BECMG 2920/2922 14005KT
BECMG 3002/3004 20010KT
TEMPO 3010/3014 25015KT 6000 -TSRA FEW018CB SCT030 BKN100